sensor_id;sensor_type;location;lat;lon;timestamp;P1;durP1;ratioP1;P2;durP2;ratioP2
9657;SDS011;4867;48.112;11.622;2023-06-10T00:02:22;10.33;;;9.33;;
9657;SDS011;4867;48.112;11.622;2023-06-10T00:04:50;9.80;;;9.00;;
9657;SDS011;4867;48.112;11.622;2023-06-10T00:07:19;9.43;;;8.70;;
9657;SDS011;4867;48.112;11.622;2023-06-10T00:09:46;10.13;;;9.27;;
9657;SDS011;4867;48.112;11.622;2023-06-10T00:12:14;10.83;;;9.93;;
9657;SDS011;4867;48.112;11.622;2023-06-10T00:14:43;10.00;;;9.10;;
9657;SDS011;4867;48.112;11.622;2023-06-10T00:17:11;9.90;;;9.10;;
9657;SDS011;4867;48.112;11.622;2023-06-10T00:19:38;10.07;;;9.27;;
9657;SDS011;4867;48.112;11.622;2023-06-10T00:22:07;10.00;;;9.10;;
9657;SDS011;4867;48.112;11.622;2023-06-10T00:24:36;10.10;;;9.30;;
9657;SDS011;4867;48.112;11.622;2023-06-10T00:27:03;10.03;;;9.23;;
9657;SDS011;4867;48.112;11.622;2023-06-10T00:29:34;9.67;;;8.80;;
9657;SDS011;4867;48.112;11.622;2023-06-10T00:32:02;9.63;;;8.83;;
9657;SDS011;4867;48.112;11.622;2023-06-10T00:34:30;9.73;;;9.00;;
9657;SDS011;4867;48.112;11.622;2023-06-10T00:36:59;9.00;;;8.30;;
9657;SDS011;4867;48.112;11.622;2023-06-10T00:39:26;9.63;;;8.83;;
9657;SDS011;4867;48.112;11.622;2023-06-10T00:41:54;8.87;;;8.13;;
9657;SDS011;4867;48.112;11.622;2023-06-10T00:44:21;9.37;;;8.57;;
9657;SDS011;4867;48.112;11.622;2023-06-10T00:46:49;8.90;;;8.17;;
9657;SDS011;4867;48.112;11.622;2023-06-10T00:49:18;8.90;;;8.00;;
9657;SDS011;4867;48.112;11.622;2023-06-10T00:51:48;8.80;;;8.10;;
9657;SDS011;4867;48.112;11.622;2023-06-10T00:54:15;8.30;;;7.60;;
9657;SDS011;4867;48.112;11.622;2023-06-10T00:56:46;9.23;;;8.43;;
9657;SDS011;4867;48.112;11.622;2023-06-10T00:59:15;8.73;;;8.00;;
9657;SDS011;4867;48.112;11.622;2023-06-10T01:01:45;8.57;;;7.77;;
9657;SDS011;4867;48.112;11.622;2023-06-10T01:04:16;8.37;;;7.67;;
9657;SDS011;4867;48.112;11.622;2023-06-10T01:09:34;9.03;;;8.23;;
9657;SDS011;4867;48.112;11.622;2023-06-10T01:12:16;8.67;;;7.90;;
9657;SDS011;4867;48.112;11.622;2023-06-10T01:14:50;10.00;;;9.20;;
9657;SDS011;4867;48.112;11.622;2023-06-10T01:17:19;9.07;;;8.27;;
9657;SDS011;4867;48.112;11.622;2023-06-10T01:19:53;9.33;;;8.53;;
9657;SDS011;4867;48.112;11.622;2023-06-10T01:22:26;9.70;;;8.00;;
9657;SDS011;4867;48.112;11.622;2023-06-10T01:25:03;9.10;;;8.40;;
9657;SDS011;4867;48.112;11.622;2023-06-10T01:27:33;9.07;;;8.30;;
9657;SDS011;4867;48.112;11.622;2023-06-10T01:30:08;9.30;;;8.57;;
9657;SDS011;4867;48.112;11.622;2023-06-10T01:32:43;8.83;;;8.03;;
9657;SDS011;4867;48.112;11.622;2023-06-10T01:35:14;9.80;;;8.97;;
9657;SDS011;4867;48.112;11.622;2023-06-10T01:37:45;9.83;;;8.93;;
9657;SDS011;4867;48.112;11.622;2023-06-10T01:40:31;9.60;;;8.90;;
9657;SDS011;4867;48.112;11.622;2023-06-10T01:43:01;10.00;;;9.10;;
9657;SDS011;4867;48.112;11.622;2023-06-10T01:45:28;9.23;;;8.33;;
9657;SDS011;4867;48.112;11.622;2023-06-10T01:47:56;9.97;;;9.13;;
9657;SDS011;4867;48.112;11.622;2023-06-10T01:50:23;10.20;;;9.40;;
9657;SDS011;4867;48.112;11.622;2023-06-10T01:52:50;10.77;;;9.67;;
9657;SDS011;4867;48.112;11.622;2023-06-10T01:55:18;10.47;;;9.57;;
9657;SDS011;4867;48.112;11.622;2023-06-10T01:57:45;9.73;;;8.93;;
9657;SDS011;4867;48.112;11.622;2023-06-10T02:00:13;10.50;;;8.73;;
9657;SDS011;4867;48.112;11.622;2023-06-10T02:02:41;9.13;;;8.33;;
9657;SDS011;4867;48.112;11.622;2023-06-10T02:05:08;9.60;;;8.80;;
9657;SDS011;4867;48.112;11.622;2023-06-10T02:07:36;9.30;;;8.50;;
9657;SDS011;4867;48.112;11.622;2023-06-10T02:10:06;10.00;;;9.20;;
9657;SDS011;4867;48.112;11.622;2023-06-10T02:12:33;10.17;;;9.37;;
9657;SDS011;4867;48.112;11.622;2023-06-10T02:15:01;9.73;;;8.83;;
9657;SDS011;4867;48.112;11.622;2023-06-10T02:17:29;9.03;;;8.23;;
9657;SDS011;4867;48.112;11.622;2023-06-10T02:19:58;9.93;;;9.13;;
9657;SDS011;4867;48.112;11.622;2023-06-10T02:22:26;10.37;;;9.47;;
9657;SDS011;4867;48.112;11.622;2023-06-10T02:24:54;9.93;;;9.13;;
9657;SDS011;4867;48.112;11.622;2023-06-10T02:27:21;10.00;;;9.03;;
9657;SDS011;4867;48.112;11.622;2023-06-10T02:29:49;9.43;;;8.63;;
9657;SDS011;4867;48.112;11.622;2023-06-10T02:32:16;10.07;;;9.27;;
9657;SDS011;4867;48.112;11.622;2023-06-10T02:34:44;10.33;;;9.37;;
9657;SDS011;4867;48.112;11.622;2023-06-10T02:37:13;9.07;;;8.27;;
9657;SDS011;4867;48.112;11.622;2023-06-10T02:39:40;9.57;;;8.77;;
9657;SDS011;4867;48.112;11.622;2023-06-10T02:42:10;9.07;;;8.27;;
9657;SDS011;4867;48.112;11.622;2023-06-10T02:44:39;9.60;;;8.80;;
9657;SDS011;4867;48.112;11.622;2023-06-10T02:47:10;9.67;;;8.87;;
9657;SDS011;4867;48.112;11.622;2023-06-10T02:49:38;9.77;;;8.93;;
9657;SDS011;4867;48.112;11.622;2023-06-10T02:52:08;10.30;;;9.40;;
9657;SDS011;4867;48.112;11.622;2023-06-10T02:54:38;10.23;;;9.33;;
9657;SDS011;4867;48.112;11.622;2023-06-10T02:57:08;10.90;;;10.00;;
9657;SDS011;4867;48.112;11.622;2023-06-10T02:59:37;11.70;;;10.70;;
9657;SDS011;4867;48.112;11.622;2023-06-10T03:02:05;11.57;;;10.67;;
9657;SDS011;4867;48.112;11.622;2023-06-10T03:04:39;10.30;;;9.50;;
9657;SDS011;4867;48.112;11.622;2023-06-10T03:07:12;11.60;;;10.57;;
9657;SDS011;4867;48.112;11.622;2023-06-10T03:09:40;10.63;;;9.73;;
9657;SDS011;4867;48.112;11.622;2023-06-10T03:12:12;9.63;;;8.83;;
9657;SDS011;4867;48.112;11.622;2023-06-10T03:14:44;11.00;;;10.00;;
9657;SDS011;4867;48.112;11.622;2023-06-10T03:17:12;10.50;;;9.57;;
9657;SDS011;4867;48.112;11.622;2023-06-10T03:19:42;10.17;;;9.30;;
9657;SDS011;4867;48.112;11.622;2023-06-10T03:22:10;10.63;;;9.67;;
9657;SDS011;4867;48.112;11.622;2023-06-10T03:24:49;10.80;;;9.27;;
9657;SDS011;4867;48.112;11.622;2023-06-10T03:27:18;9.97;;;9.17;;
9657;SDS011;4867;48.112;11.622;2023-06-10T03:29:50;11.07;;;10.17;;
9657;SDS011;4867;48.112;11.622;2023-06-10T03:32:18;11.17;;;10.07;;
9657;SDS011;4867;48.112;11.622;2023-06-10T03:34:45;12.30;;;11.20;;
9657;SDS011;4867;48.112;11.622;2023-06-10T03:37:14;10.37;;;9.47;;
9657;SDS011;4867;48.112;11.622;2023-06-10T03:39:44;11.13;;;10.13;;
9657;SDS011;4867;48.112;11.622;2023-06-10T03:42:11;11.10;;;10.20;;
9657;SDS011;4867;48.112;11.622;2023-06-10T03:44:38;11.23;;;10.23;;
9657;SDS011;4867;48.112;11.622;2023-06-10T03:47:06;10.83;;;9.80;;
9657;SDS011;4867;48.112;11.622;2023-06-10T03:49:35;9.87;;;9.03;;
9657;SDS011;4867;48.112;11.622;2023-06-10T03:52:04;10.50;;;9.60;;
9657;SDS011;4867;48.112;11.622;2023-06-10T03:54:32;12.10;;;11.00;;
9657;SDS011;4867;48.112;11.622;2023-06-10T03:57:02;11.10;;;10.03;;
9657;SDS011;4867;48.112;11.622;2023-06-10T03:59:30;11.07;;;10.13;;
9657;SDS011;4867;48.112;11.622;2023-06-10T04:01:57;10.60;;;9.60;;
9657;SDS011;4867;48.112;11.622;2023-06-10T04:04:25;11.43;;;10.43;;
9657;SDS011;4867;48.112;11.622;2023-06-10T04:06:52;10.03;;;9.23;;
9657;SDS011;4867;48.112;11.622;2023-06-10T04:09:22;11.57;;;10.57;;
9657;SDS011;4867;48.112;11.622;2023-06-10T04:11:49;12.70;;;11.40;;
9657;SDS011;4867;48.112;11.622;2023-06-10T04:14:16;10.47;;;9.67;;
9657;SDS011;4867;48.112;11.622;2023-06-10T04:16:44;11.40;;;10.40;;
9657;SDS011;4867;48.112;11.622;2023-06-10T04:19:12;11.17;;;10.27;;
9657;SDS011;4867;48.112;11.622;2023-06-10T04:21:39;11.80;;;10.90;;
9657;SDS011;4867;48.112;11.622;2023-06-10T04:24:07;12.03;;;11.13;;
9657;SDS011;4867;48.112;11.622;2023-06-10T04:26:35;11.83;;;10.93;;
9657;SDS011;4867;48.112;11.622;2023-06-10T04:29:04;11.80;;;10.80;;
9657;SDS011;4867;48.112;11.622;2023-06-10T04:31:31;12.60;;;11.47;;
9657;SDS011;4867;48.112;11.622;2023-06-10T04:34:00;12.27;;;11.17;;
9657;SDS011;4867;48.112;11.622;2023-06-10T04:36:28;12.30;;;11.20;;
9657;SDS011;4867;48.112;11.622;2023-06-10T04:38:56;11.90;;;10.80;;
9657;SDS011;4867;48.112;11.622;2023-06-10T04:41:24;13.17;;;12.10;;
9657;SDS011;4867;48.112;11.622;2023-06-10T04:43:52;13.17;;;12.00;;
9657;SDS011;4867;48.112;11.622;2023-06-10T04:46:20;12.30;;;11.20;;
9657;SDS011;4867;48.112;11.622;2023-06-10T04:48:47;12.67;;;11.57;;
9657;SDS011;4867;48.112;11.622;2023-06-10T04:51:15;13.20;;;12.10;;
9657;SDS011;4867;48.112;11.622;2023-06-10T04:53:43;12.97;;;11.97;;
9657;SDS011;4867;48.112;11.622;2023-06-10T04:56:11;12.40;;;11.30;;
9657;SDS011;4867;48.112;11.622;2023-06-10T04:58:38;12.57;;;11.50;;
9657;SDS011;4867;48.112;11.622;2023-06-10T05:01:06;12.23;;;11.23;;
9657;SDS011;4867;48.112;11.622;2023-06-10T05:03:33;13.13;;;12.03;;
9657;SDS011;4867;48.112;11.622;2023-06-10T05:06:01;13.53;;;12.20;;
9657;SDS011;4867;48.112;11.622;2023-06-10T05:08:28;12.57;;;11.53;;
9657;SDS011;4867;48.112;11.622;2023-06-10T05:10:56;13.27;;;12.10;;
9657;SDS011;4867;48.112;11.622;2023-06-10T05:13:23;12.40;;;11.40;;
9657;SDS011;4867;48.112;11.622;2023-06-10T05:15:50;13.20;;;12.10;;
9657;SDS011;4867;48.112;11.622;2023-06-10T05:18:18;13.13;;;12.03;;
9657;SDS011;4867;48.112;11.622;2023-06-10T05:20:45;13.57;;;12.40;;
9657;SDS011;4867;48.112;11.622;2023-06-10T05:23:13;14.27;;;12.77;;
9657;SDS011;4867;48.112;11.622;2023-06-10T05:25:41;13.67;;;12.47;;
9657;SDS011;4867;48.112;11.622;2023-06-10T05:28:09;12.47;;;11.33;;
9657;SDS011;4867;48.112;11.622;2023-06-10T05:30:41;13.47;;;12.30;;
9657;SDS011;4867;48.112;11.622;2023-06-10T05:33:08;13.43;;;12.33;;
9657;SDS011;4867;48.112;11.622;2023-06-10T05:35:36;13.57;;;12.47;;
9657;SDS011;4867;48.112;11.622;2023-06-10T05:38:03;13.83;;;12.73;;
9657;SDS011;4867;48.112;11.622;2023-06-10T05:40:30;13.90;;;12.70;;
9657;SDS011;4867;48.112;11.622;2023-06-10T05:42:57;13.53;;;12.33;;
9657;SDS011;4867;48.112;11.622;2023-06-10T05:45:25;13.17;;;12.07;;
9657;SDS011;4867;48.112;11.622;2023-06-10T05:47:52;14.10;;;12.70;;
9657;SDS011;4867;48.112;11.622;2023-06-10T05:50:19;14.10;;;12.80;;
9657;SDS011;4867;48.112;11.622;2023-06-10T05:52:47;13.40;;;12.30;;
9657;SDS011;4867;48.112;11.622;2023-06-10T05:55:14;13.37;;;12.17;;
9657;SDS011;4867;48.112;11.622;2023-06-10T05:57:41;13.13;;;11.93;;
9657;SDS011;4867;48.112;11.622;2023-06-10T06:00:09;14.13;;;12.73;;
9657;SDS011;4867;48.112;11.622;2023-06-10T06:02:40;13.53;;;12.07;;
9657;SDS011;4867;48.112;11.622;2023-06-10T06:05:08;12.87;;;11.67;;
9657;SDS011;4867;48.112;11.622;2023-06-10T06:07:36;12.83;;;11.73;;
9657;SDS011;4867;48.112;11.622;2023-06-10T06:10:04;14.43;;;12.30;;
9657;SDS011;4867;48.112;11.622;2023-06-10T06:12:31;13.77;;;12.47;;
9657;SDS011;4867;48.112;11.622;2023-06-10T06:14:59;13.30;;;11.93;;
9657;SDS011;4867;48.112;11.622;2023-06-10T06:17:26;13.43;;;12.23;;
9657;SDS011;4867;48.112;11.622;2023-06-10T06:19:53;12.83;;;11.67;;
9657;SDS011;4867;48.112;11.622;2023-06-10T06:22:20;13.23;;;11.57;;
9657;SDS011;4867;48.112;11.622;2023-06-10T06:24:48;12.50;;;11.20;;
9657;SDS011;4867;48.112;11.622;2023-06-10T06:27:16;13.33;;;12.23;;
9657;SDS011;4867;48.112;11.622;2023-06-10T06:29:43;12.87;;;11.87;;
9657;SDS011;4867;48.112;11.622;2023-06-10T06:32:11;12.57;;;11.47;;
9657;SDS011;4867;48.112;11.622;2023-06-10T06:34:39;12.70;;;11.50;;
9657;SDS011;4867;48.112;11.622;2023-06-10T06:37:06;13.73;;;11.67;;
9657;SDS011;4867;48.112;11.622;2023-06-10T06:39:36;11.83;;;10.93;;
9657;SDS011;4867;48.112;11.622;2023-06-10T06:42:04;12.40;;;11.07;;
9657;SDS011;4867;48.112;11.622;2023-06-10T06:44:49;12.53;;;11.40;;
9657;SDS011;4867;48.112;11.622;2023-06-10T06:47:16;15.53;;;12.47;;
9657;SDS011;4867;48.112;11.622;2023-06-10T06:49:47;18.90;;;12.63;;
9657;SDS011;4867;48.112;11.622;2023-06-10T06:52:14;12.70;;;11.50;;
9657;SDS011;4867;48.112;11.622;2023-06-10T06:54:42;12.10;;;10.73;;
9657;SDS011;4867;48.112;11.622;2023-06-10T06:57:09;10.93;;;10.03;;
9657;SDS011;4867;48.112;11.622;2023-06-10T06:59:37;11.93;;;10.83;;
9657;SDS011;4867;48.112;11.622;2023-06-10T07:02:05;12.27;;;11.20;;
9657;SDS011;4867;48.112;11.622;2023-06-10T07:04:32;11.20;;;10.30;;
9657;SDS011;4867;48.112;11.622;2023-06-10T07:07:00;11.70;;;10.70;;
9657;SDS011;4867;48.112;11.622;2023-06-10T07:09:27;12.07;;;10.87;;
9657;SDS011;4867;48.112;11.622;2023-06-10T07:11:55;11.97;;;10.97;;
9657;SDS011;4867;48.112;11.622;2023-06-10T07:14:22;12.00;;;11.00;;
9657;SDS011;4867;48.112;11.622;2023-06-10T07:16:49;16.97;;;12.83;;
9657;SDS011;4867;48.112;11.622;2023-06-10T07:19:17;12.57;;;11.40;;
9657;SDS011;4867;48.112;11.622;2023-06-10T07:21:44;12.63;;;11.53;;
9657;SDS011;4867;48.112;11.622;2023-06-10T07:24:12;11.10;;;10.20;;
9657;SDS011;4867;48.112;11.622;2023-06-10T07:26:39;12.10;;;10.93;;
9657;SDS011;4867;48.112;11.622;2023-06-10T07:29:06;12.00;;;10.80;;
9657;SDS011;4867;48.112;11.622;2023-06-10T07:31:34;11.40;;;10.40;;
9657;SDS011;4867;48.112;11.622;2023-06-10T07:34:01;10.87;;;9.87;;
9657;SDS011;4867;48.112;11.622;2023-06-10T07:36:28;11.03;;;10.07;;
9657;SDS011;4867;48.112;11.622;2023-06-10T07:38:56;12.10;;;11.10;;
9657;SDS011;4867;48.112;11.622;2023-06-10T07:41:23;9.53;;;8.63;;
9657;SDS011;4867;48.112;11.622;2023-06-10T07:43:54;10.47;;;9.50;;
9657;SDS011;4867;48.112;11.622;2023-06-10T07:46:23;12.43;;;9.77;;
9657;SDS011;4867;48.112;11.622;2023-06-10T07:48:51;10.23;;;9.43;;
9657;SDS011;4867;48.112;11.622;2023-06-10T07:51:18;10.03;;;9.23;;
9657;SDS011;4867;48.112;11.622;2023-06-10T07:53:46;9.80;;;9.00;;
9657;SDS011;4867;48.112;11.622;2023-06-10T07:56:13;9.27;;;8.57;;
9657;SDS011;4867;48.112;11.622;2023-06-10T07:58:40;8.33;;;7.73;;
9657;SDS011;4867;48.112;11.622;2023-06-10T08:01:08;8.10;;;7.50;;
9657;SDS011;4867;48.112;11.622;2023-06-10T08:03:35;8.00;;;7.40;;
9657;SDS011;4867;48.112;11.622;2023-06-10T08:06:03;9.27;;;8.47;;
9657;SDS011;4867;48.112;11.622;2023-06-10T08:08:32;8.97;;;8.17;;
9657;SDS011;4867;48.112;11.622;2023-06-10T08:11:01;8.20;;;7.50;;
9657;SDS011;4867;48.112;11.622;2023-06-10T08:13:28;8.17;;;7.57;;
9657;SDS011;4867;48.112;11.622;2023-06-10T08:15:56;8.70;;;8.00;;
9657;SDS011;4867;48.112;11.622;2023-06-10T08:18:23;8.77;;;8.07;;
9657;SDS011;4867;48.112;11.622;2023-06-10T08:20:50;8.50;;;7.80;;
9657;SDS011;4867;48.112;11.622;2023-06-10T08:23:17;7.73;;;7.03;;
9657;SDS011;4867;48.112;11.622;2023-06-10T08:25:46;8.63;;;7.93;;
9657;SDS011;4867;48.112;11.622;2023-06-10T08:28:14;9.00;;;8.30;;
9657;SDS011;4867;48.112;11.622;2023-06-10T08:30:41;9.97;;;9.17;;
9657;SDS011;4867;48.112;11.622;2023-06-10T08:33:08;8.47;;;7.87;;
9657;SDS011;4867;48.112;11.622;2023-06-10T08:35:36;8.88;;;8.18;;
9657;SDS011;4867;48.112;11.622;2023-06-10T08:38:03;8.67;;;7.93;;
9657;SDS011;4867;48.112;11.622;2023-06-10T08:40:31;9.10;;;8.30;;
9657;SDS011;4867;48.112;11.622;2023-06-10T08:43:06;8.23;;;7.63;;
9657;SDS011;4867;48.112;11.622;2023-06-10T08:45:35;8.10;;;7.30;;
9657;SDS011;4867;48.112;11.622;2023-06-10T08:48:03;8.57;;;7.73;;
9657;SDS011;4867;48.112;11.622;2023-06-10T08:50:37;9.17;;;8.47;;
9657;SDS011;4867;48.112;11.622;2023-06-10T08:53:06;8.93;;;8.23;;
9657;SDS011;4867;48.112;11.622;2023-06-10T08:55:38;9.33;;;8.63;;
9657;SDS011;4867;48.112;11.622;2023-06-10T08:58:08;10.40;;;9.50;;
9657;SDS011;4867;48.112;11.622;2023-06-10T09:00:36;12.30;;;8.87;;
9657;SDS011;4867;48.112;11.622;2023-06-10T09:03:04;9.30;;;8.60;;
9657;SDS011;4867;48.112;11.622;2023-06-10T09:05:35;9.52;;;8.63;;
9657;SDS011;4867;48.112;11.622;2023-06-10T09:08:07;7.75;;;7.15;;
9657;SDS011;4867;48.112;11.622;2023-06-10T09:10:36;7.57;;;6.87;;
9657;SDS011;4867;48.112;11.622;2023-06-10T09:13:03;7.37;;;6.77;;
9657;SDS011;4867;48.112;11.622;2023-06-10T09:15:30;7.13;;;6.53;;
9657;SDS011;4867;48.112;11.622;2023-06-10T09:17:58;8.13;;;7.53;;
9657;SDS011;4867;48.112;11.622;2023-06-10T09:20:26;8.55;;;7.85;;
9657;SDS011;4867;48.112;11.622;2023-06-10T09:22:53;7.50;;;6.90;;
9657;SDS011;4867;48.112;11.622;2023-06-10T09:25:21;8.00;;;7.35;;
9657;SDS011;4867;48.112;11.622;2023-06-10T09:28:03;7.37;;;6.80;;
9657;SDS011;4867;48.112;11.622;2023-06-10T09:30:33;7.40;;;6.80;;
9657;SDS011;4867;48.112;11.622;2023-06-10T09:33:02;7.78;;;7.18;;
9657;SDS011;4867;48.112;11.622;2023-06-10T09:35:49;7.85;;;7.18;;
9657;SDS011;4867;48.112;11.622;2023-06-10T09:38:20;7.38;;;6.78;;
9657;SDS011;4867;48.112;11.622;2023-06-10T09:40:49;7.90;;;7.30;;
9657;SDS011;4867;48.112;11.622;2023-06-10T09:43:20;7.60;;;6.90;;
9657;SDS011;4867;48.112;11.622;2023-06-10T09:45:51;6.63;;;6.07;;
9657;SDS011;4867;48.112;11.622;2023-06-10T09:48:22;7.80;;;7.13;;
9657;SDS011;4867;48.112;11.622;2023-06-10T09:50:50;7.37;;;6.77;;
9657;SDS011;4867;48.112;11.622;2023-06-10T09:53:17;6.65;;;6.15;;
9657;SDS011;4867;48.112;11.622;2023-06-10T09:55:45;6.40;;;5.90;;
9657;SDS011;4867;48.112;11.622;2023-06-10T09:58:12;7.18;;;6.57;;
9657;SDS011;4867;48.112;11.622;2023-06-10T10:00:41;7.65;;;7.05;;
9657;SDS011;4867;48.112;11.622;2023-06-10T10:03:08;7.32;;;6.63;;
9657;SDS011;4867;48.112;11.622;2023-06-10T10:05:36;7.32;;;6.50;;
9657;SDS011;4867;48.112;11.622;2023-06-10T10:08:03;6.85;;;6.35;;
9657;SDS011;4867;48.112;11.622;2023-06-10T10:10:31;6.75;;;6.03;;
9657;SDS011;4867;48.112;11.622;2023-06-10T10:12:58;7.20;;;6.60;;
9657;SDS011;4867;48.112;11.622;2023-06-10T10:15:28;6.90;;;6.30;;
9657;SDS011;4867;48.112;11.622;2023-06-10T10:18:01;6.72;;;6.22;;
9657;SDS011;4867;48.112;11.622;2023-06-10T10:20:37;6.63;;;6.03;;
9657;SDS011;4867;48.112;11.622;2023-06-10T10:23:14;6.25;;;5.75;;
9657;SDS011;4867;48.112;11.622;2023-06-10T10:25:49;6.20;;;5.70;;
9657;SDS011;4867;48.112;11.622;2023-06-10T10:28:20;6.28;;;5.78;;
9657;SDS011;4867;48.112;11.622;2023-06-10T10:30:52;6.95;;;6.25;;
9657;SDS011;4867;48.112;11.622;2023-06-10T10:36:13;6.32;;;5.72;;
9657;SDS011;4867;48.112;11.622;2023-06-10T10:38:41;6.15;;;5.65;;
9657;SDS011;4867;48.112;11.622;2023-06-10T10:41:09;6.07;;;5.50;;
9657;SDS011;4867;48.112;11.622;2023-06-10T10:43:37;6.07;;;5.57;;
9657;SDS011;4867;48.112;11.622;2023-06-10T10:46:08;6.07;;;5.57;;
9657;SDS011;4867;48.112;11.622;2023-06-10T10:48:40;5.80;;;5.30;;
9657;SDS011;4867;48.112;11.622;2023-06-10T10:51:08;6.00;;;5.40;;
9657;SDS011;4867;48.112;11.622;2023-06-10T10:53:39;5.68;;;5.18;;
9657;SDS011;4867;48.112;11.622;2023-06-10T10:56:07;5.60;;;5.20;;
9657;SDS011;4867;48.112;11.622;2023-06-10T10:58:40;5.28;;;4.88;;
9657;SDS011;4867;48.112;11.622;2023-06-10T11:01:13;5.18;;;4.68;;
9657;SDS011;4867;48.112;11.622;2023-06-10T11:03:42;5.55;;;5.13;;
9657;SDS011;4867;48.112;11.622;2023-06-10T11:06:15;5.35;;;4.95;;
9657;SDS011;4867;48.112;11.622;2023-06-10T11:11:17;7.30;;;5.20;;
9657;SDS011;4867;48.112;11.622;2023-06-10T11:16:31;5.50;;;5.10;;
9657;SDS011;4867;48.112;11.622;2023-06-10T11:19:09;5.55;;;5.10;;
9657;SDS011;4867;48.112;11.622;2023-06-10T11:21:56;5.20;;;4.80;;
9657;SDS011;4867;48.112;11.622;2023-06-10T11:24:28;5.03;;;4.63;;
9657;SDS011;4867;48.112;11.622;2023-06-10T11:29:58;5.28;;;4.35;;
9657;SDS011;4867;48.112;11.622;2023-06-10T11:32:49;4.80;;;4.40;;
9657;SDS011;4867;48.112;11.622;2023-06-10T11:35:19;4.82;;;4.50;;
9657;SDS011;4867;48.112;11.622;2023-06-10T11:37:48;4.40;;;4.07;;
9657;SDS011;4867;48.112;11.622;2023-06-10T11:40:15;4.53;;;4.20;;
9657;SDS011;4867;48.112;11.622;2023-06-10T11:42:43;4.43;;;4.03;;
9657;SDS011;4867;48.112;11.622;2023-06-10T11:45:14;4.65;;;4.35;;
9657;SDS011;4867;48.112;11.622;2023-06-10T11:47:55;4.78;;;4.30;;
9657;SDS011;4867;48.112;11.622;2023-06-10T11:50:33;5.32;;;4.93;;
9657;SDS011;4867;48.112;11.622;2023-06-10T11:53:00;4.70;;;4.40;;
9657;SDS011;4867;48.112;11.622;2023-06-10T11:55:47;4.05;;;3.75;;
9657;SDS011;4867;48.112;11.622;2023-06-10T11:58:16;4.22;;;3.83;;
9657;SDS011;4867;48.112;11.622;2023-06-10T12:00:45;4.10;;;3.80;;
9657;SDS011;4867;48.112;11.622;2023-06-10T12:03:13;4.78;;;3.95;;
9657;SDS011;4867;48.112;11.622;2023-06-10T12:06:03;4.18;;;3.88;;
9657;SDS011;4867;48.112;11.622;2023-06-10T12:08:32;4.30;;;4.00;;
9657;SDS011;4867;48.112;11.622;2023-06-10T12:11:02;4.25;;;3.90;;
9657;SDS011;4867;48.112;11.622;2023-06-10T12:13:30;4.15;;;3.85;;
9657;SDS011;4867;48.112;11.622;2023-06-10T12:16:06;3.88;;;3.58;;
9657;SDS011;4867;48.112;11.622;2023-06-10T12:18:35;4.68;;;3.50;;
9657;SDS011;4867;48.112;11.622;2023-06-10T12:21:02;3.60;;;3.30;;
9657;SDS011;4867;48.112;11.622;2023-06-10T12:23:30;4.00;;;3.55;;
9657;SDS011;4867;48.112;11.622;2023-06-10T12:25:59;3.50;;;3.30;;
9657;SDS011;4867;48.112;11.622;2023-06-10T12:28:26;3.85;;;3.55;;
9657;SDS011;4867;48.112;11.622;2023-06-10T12:31:06;4.38;;;3.97;;
9657;SDS011;4867;48.112;11.622;2023-06-10T12:33:34;3.70;;;3.40;;
9657;SDS011;4867;48.112;11.622;2023-06-10T12:36:02;3.90;;;3.45;;
9657;SDS011;4867;48.112;11.622;2023-06-10T12:38:29;3.40;;;3.10;;
9657;SDS011;4867;48.112;11.622;2023-06-10T12:41:01;3.38;;;3.17;;
9657;SDS011;4867;48.112;11.622;2023-06-10T12:43:32;3.88;;;3.58;;
9657;SDS011;4867;48.112;11.622;2023-06-10T12:46:09;3.75;;;3.45;;
9657;SDS011;4867;48.112;11.622;2023-06-10T12:48:48;3.95;;;3.65;;
9657;SDS011;4867;48.112;11.622;2023-06-10T12:51:18;4.00;;;3.70;;
9657;SDS011;4867;48.112;11.622;2023-06-10T12:53:46;4.93;;;3.92;;
9657;SDS011;4867;48.112;11.622;2023-06-10T12:56:13;5.10;;;4.70;;
9657;SDS011;4867;48.112;11.622;2023-06-10T12:58:40;4.72;;;4.32;;
9657;SDS011;4867;48.112;11.622;2023-06-10T13:01:10;5.18;;;4.68;;
9657;SDS011;4867;48.112;11.622;2023-06-10T13:03:38;5.97;;;5.47;;
9657;SDS011;4867;48.112;11.622;2023-06-10T13:06:07;6.32;;;5.50;;
9657;SDS011;4867;48.112;11.622;2023-06-10T13:08:34;6.28;;;5.65;;
9657;SDS011;4867;48.112;11.622;2023-06-10T13:11:02;6.88;;;5.50;;
9657;SDS011;4867;48.112;11.622;2023-06-10T13:13:29;5.88;;;5.47;;
9657;SDS011;4867;48.112;11.622;2023-06-10T13:15:56;5.05;;;4.65;;
9657;SDS011;4867;48.112;11.622;2023-06-10T13:18:23;7.07;;;6.38;;
9657;SDS011;4867;48.112;11.622;2023-06-10T13:20:50;5.20;;;4.80;;
9657;SDS011;4867;48.112;11.622;2023-06-10T13:23:18;6.10;;;5.47;;
9657;SDS011;4867;48.112;11.622;2023-06-10T13:25:45;6.28;;;5.38;;
9657;SDS011;4867;48.112;11.622;2023-06-10T13:28:12;5.80;;;5.40;;
9657;SDS011;4867;48.112;11.622;2023-06-10T13:30:40;6.20;;;5.60;;
9657;SDS011;4867;48.112;11.622;2023-06-10T13:33:07;5.22;;;4.82;;
9657;SDS011;4867;48.112;11.622;2023-06-10T13:35:34;5.88;;;5.38;;
9657;SDS011;4867;48.112;11.622;2023-06-10T13:38:01;5.47;;;5.03;;
9657;SDS011;4867;48.112;11.622;2023-06-10T13:40:29;5.35;;;4.95;;
9657;SDS011;4867;48.112;11.622;2023-06-10T13:42:56;6.43;;;4.90;;
9657;SDS011;4867;48.112;11.622;2023-06-10T13:45:23;5.00;;;4.50;;
9657;SDS011;4867;48.112;11.622;2023-06-10T13:47:51;4.82;;;4.32;;
9657;SDS011;4867;48.112;11.622;2023-06-10T13:50:19;4.47;;;4.18;;
9657;SDS011;4867;48.112;11.622;2023-06-10T13:52:46;3.97;;;3.70;;
9657;SDS011;4867;48.112;11.622;2023-06-10T13:55:14;4.22;;;3.83;;
9657;SDS011;4867;48.112;11.622;2023-06-10T13:57:42;4.80;;;4.40;;
9657;SDS011;4867;48.112;11.622;2023-06-10T14:00:09;4.60;;;4.30;;
9657;SDS011;4867;48.112;11.622;2023-06-10T14:02:37;4.45;;;4.15;;
9657;SDS011;4867;48.112;11.622;2023-06-10T14:05:05;4.68;;;4.28;;
9657;SDS011;4867;48.112;11.622;2023-06-10T14:07:35;4.70;;;4.30;;
9657;SDS011;4867;48.112;11.622;2023-06-10T14:10:04;4.65;;;4.25;;
9657;SDS011;4867;48.112;11.622;2023-06-10T14:12:31;5.22;;;4.32;;
9657;SDS011;4867;48.112;11.622;2023-06-10T14:14:58;4.18;;;3.88;;
9657;SDS011;4867;48.112;11.622;2023-06-10T14:17:26;5.07;;;4.68;;
9657;SDS011;4867;48.112;11.622;2023-06-10T14:19:53;4.82;;;4.43;;
9657;SDS011;4867;48.112;11.622;2023-06-10T14:22:21;5.57;;;5.13;;
9657;SDS011;4867;48.112;11.622;2023-06-10T14:24:48;5.40;;;5.00;;
9657;SDS011;4867;48.112;11.622;2023-06-10T14:27:15;5.60;;;5.10;;
9657;SDS011;4867;48.112;11.622;2023-06-10T14:29:42;5.78;;;4.43;;
9657;SDS011;4867;48.112;11.622;2023-06-10T14:32:09;5.18;;;4.75;;
9657;SDS011;4867;48.112;11.622;2023-06-10T14:34:37;4.90;;;4.55;;
9657;SDS011;4867;48.112;11.622;2023-06-10T14:37:05;4.40;;;4.10;;
9657;SDS011;4867;48.112;11.622;2023-06-10T14:39:34;4.15;;;3.85;;
9657;SDS011;4867;48.112;11.622;2023-06-10T14:42:02;4.00;;;3.70;;
9657;SDS011;4867;48.112;11.622;2023-06-10T14:44:29;4.68;;;3.97;;
9657;SDS011;4867;48.112;11.622;2023-06-10T14:46:56;4.40;;;3.30;;
9657;SDS011;4867;48.112;11.622;2023-06-10T14:49:24;3.80;;;3.50;;
9657;SDS011;4867;48.112;11.622;2023-06-10T14:51:51;3.90;;;3.63;;
9657;SDS011;4867;48.112;11.622;2023-06-10T14:54:18;4.20;;;3.67;;
9657;SDS011;4867;48.112;11.622;2023-06-10T14:56:46;4.40;;;4.10;;
9657;SDS011;4867;48.112;11.622;2023-06-10T14:59:13;5.10;;;4.70;;
9657;SDS011;4867;48.112;11.622;2023-06-10T15:01:40;5.25;;;4.85;;
9657;SDS011;4867;48.112;11.622;2023-06-10T15:04:07;5.47;;;5.07;;
9657;SDS011;4867;48.112;11.622;2023-06-10T15:06:35;5.25;;;4.85;;
9657;SDS011;4867;48.112;11.622;2023-06-10T15:09:02;7.82;;;5.20;;
9657;SDS011;4867;48.112;11.622;2023-06-10T15:11:30;5.88;;;5.38;;
9657;SDS011;4867;48.112;11.622;2023-06-10T15:13:57;5.78;;;5.35;;
9657;SDS011;4867;48.112;11.622;2023-06-10T15:16:24;6.53;;;5.60;;
9657;SDS011;4867;48.112;11.622;2023-06-10T15:18:52;5.82;;;5.43;;